Nearby METAR Reports

 

KDVT - Phoenix/Deer Vly, Arizona, USA
Distance from station: SSE 14mi, 22km
Updated: 12/11/2018 10:53am
Clear
Clear
 Wind from ENE
Wind: ENE 9 mph , 15 km/h
Temperature: 66°F , 19°C
Dew Point: 34°F , 1°C
Humidity: 30%
Barometer: 30.06 inHg , 1017.9 hPa
Clouds: Clear
Visibility: 10 miles , 16 km
2018/12/11 17:53 KDVT 111753Z 07008KT 10SM CLR 19/01 A3006 RMK AO2 SLP163 T01940006 10200 20133 50003
KSDL - Scottsdale, Arizona, USA
Distance from station: SE 22mi, 35km
Updated: 12/11/2018 10:53am
Clear
Clear
 Wind from WNW
Wind: WNW 5 mph , 7 km/h
Temperature: 64°F , 18°C
Dew Point: 36°F , 2°C
Humidity: 34%
Barometer: 30.07 inHg , 1018.3 hPa
Clouds: Clear
Visibility: 10 miles , 16 km
2018/12/11 17:53 KSDL 111753Z 29004KT 10SM CLR 18/02 A3007 RMK AO2 SLP168 T01780017 10178 20128 53003
 
KGEU - Glendale, Arizona, USA
Distance from station: SSW 25mi, 41km
Updated: 12/11/2018 10:50am
Mostly cloudy
Mostly cloudy
 Wind from calm
Wind: Calm
Temperature: 66°F , 19°C
Dew Point: 37°F , 3°C
Humidity: 35%
Barometer: 30.07 inHg , 1018.3 hPa
Clouds: Mostly cloudy
Visibility: 10 miles , 16 km
Cloud details: Few Clouds 17000 ft
Mostly cloudy 25000 ft
2018/12/11 17:50 KGEU 111750Z 00000KT 10SM FEW170 BKN250 19/03 A3007
KLUF - Luke Afb/Glendal, Arizona, USA
Distance from station: SSW 28mi, 45km
Updated: 12/11/2018 10:58am
Partly cloudy
Partly cloudy
 Wind from E
Wind: E 3 mph , 6 km/h
Temperature: 64°F , 18°C
Dew Point: 41°F , 5°C
Humidity: 43%
Barometer: 30.04 inHg , 1017.3 hPa
Clouds: Partly cloudy
Visibility: 10 miles , 16 km
Cloud details: Partly cloudy 20000 ft
2018/12/11 17:58 KLUF 111758Z 08003KT 10SM SCT200 18/05 A3004 RMK AO2A SLP169 T01800052 10180 20101 $
 
KPHX - Phoenix/Sky Hrbr, Arizona, USA
Distance from station: SSE 31mi, 51km
Updated: 12/11/2018 10:51am
Mostly cloudy
Mostly cloudy
 Wind from NW
Wind: NW 5 mph , 7 km/h
Temperature: 61°F , 16°C
Dew Point: 37°F , 3°C
Humidity: 42%
Barometer: 30.05 inHg , 1017.6 hPa
Clouds: Mostly cloudy
Visibility: 10 miles , 16 km
Cloud details: Few Clouds 18000 ft
Partly cloudy 21000 ft
Mostly cloudy 25000 ft
2018/12/11 17:51 KPHX 111751Z 32004KT 10SM FEW180 SCT210 BKN250 16/03 A3005 RMK AO2 SLP165 T01610033 10178 20144 53004
KGYR - Goodyear Municip, Arizona, USA
Distance from station: SSW 34mi, 55km
Updated: 12/11/2018 10:47am
Mostly cloudy
Mostly cloudy
 Wind from NNE
Wind: NNE 6 mph , 9 km/h
Temperature: 64°F , 18°C
Dew Point: 37°F , 3°C
Humidity: 37%
Barometer: 30.07 inHg , 1018.3 hPa
Clouds: Mostly cloudy
Visibility: 10 miles , 16 km
Cloud details: Few Clouds 15000 ft
Partly cloudy 18000 ft
Mostly cloudy 25000 ft
2018/12/11 17:47 KGYR 111747Z 03005KT 10SM FEW150 SCT180 BKN250 18/03 A3007
 
KFFZ - Mesa/Falcon Fld, Arizona, USA
Distance from station: SE 37mi, 60km
Updated: 12/11/2018 10:54am
Clear
Clear
 Wind from NE
Wind: NE 13 mph , 20 km/h
Temperature: 64°F , 18°C
Dew Point: 30°F , -1°C
Humidity: 28%
Barometer: 30.05 inHg , 1017.6 hPa
Clouds: Clear
Visibility: 10 miles , 16 km
2018/12/11 17:54 KFFZ 111754Z 05011KT 10SM CLR 18/M01 A3005 RMK AO2 SLP161 T01831006 10183 20150 50003
KBXK - Buckeye, Arizona, USA
Distance from station: SW 45mi, 72km
Updated: 12/11/2018 9:55am
NOT Current

 
2018/12/11 16:55 KBXK 111655Z AUTO RMK AO1
 
KIWA - Chandler/Mesa, Arizona, USA
Distance from station: SE 49mi, 78km
Updated: 12/11/2018 10:49am
Mostly cloudy
Mostly cloudy
 Wind from varies
Wind: varies 3 mph , 6 km/h
Temperature: 61°F , 16°C
Dew Point: 39°F , 4°C
Humidity: 45%
Barometer: 30.07 inHg , 1018.3 hPa
Clouds: Mostly cloudy
Visibility: 40 miles , 64 km
Cloud details: Mostly cloudy 17000 ft
2018/12/11 17:49 KIWA 111749Z VRB03KT 40SM BKN170 16/04 A3007
KPAN - Payson, Arizona, USA
Distance from station: ENE 53mi, 85km
Updated: 12/11/2018 11:35am
Clear
Clear
 Wind from calm
Wind: Calm
Temperature: 54°F , 12°C
Dew Point: 25°F , -4°C
Humidity: 33%
Barometer: 30.17 inHg , 1021.7 hPa
Clouds: Clear
Visibility: 10 miles , 16 km
2018/12/11 18:35 KPAN 111835Z AUTO 00000KT 10SM CLR 12/M04 A3017 RMK AO2
 
KPRC - Prescott, Arizona, USA
Distance from station: NNW 56mi, 90km
Updated: 12/11/2018 10:53am
Clear
Clear
 Wind from calm
Wind: Calm
Temperature: 50°F , 10°C
Dew Point: 28°F , -2°C
Humidity: 43%
Barometer: 30.17 inHg , 1021.7 hPa
Clouds: Clear
Visibility: 10 miles , 16 km
2018/12/11 17:53 KPRC 111753Z 00000KT 10SM CLR 10/M02 A3017 RMK AO2 SLP188 T01001022 10100 20006 50000
KCGZ - Casa Granda, Arizona, USA
Distance from station: SSE 67mi, 109km
Updated: 12/11/2018 10:56am
Clear
Clear
 Wind from WSW
Wind: WSW 6 mph , 9 km/h
Temperature: 57°F , 14°C
Dew Point: 41°F , 5°C
Humidity: 55%
Barometer: 30.07 inHg , 1018.3 hPa
Clouds: Clear
Visibility: 10 miles , 16 km
2018/12/11 17:56 KCGZ 111756Z AUTO 25005KT 10SM CLR 14/05 A3007 RMK AO2 SLP178 6//// T01440050 10156 20117 50004 $
 
KSEZ - Sedona, Arizona, USA
Distance from station: NNE 70mi, 113km
Updated: 12/11/2018 11:35am
Clear
Clear
 Wind from SSE
Wind: SSE 5 mph , 7 km/h
Temperature: 59°F , 15°C
Dew Point: 30°F , -1°C
Humidity: 34%
Barometer: 30.17 inHg , 1021.7 hPa
Clouds: Clear
Visibility: 10 miles , 16 km
2018/12/11 18:35 KSEZ 111835Z AUTO 16004KT 10SM CLR 15/M01 A3017 RMK AO2
KGXF - Gila Bend (aaf), Arizona, USA
Distance from station: SSW 77mi, 124km
Updated: 12/11/2018 10:59am
Mostly cloudy
Mostly cloudy
 Wind from ESE
Wind: ESE 3 mph , 6 km/h
Temperature: 55°F , 13°C
Dew Point: 43°F , 6°C
Humidity: 63%
Barometer: 30.05 inHg , 1017.6 hPa
Clouds: Mostly cloudy
Visibility: 10 miles , 16 km
Cloud details: Partly cloudy 15000 ft
Mostly cloudy 18000 ft
2018/12/11 17:59 KGXF 111759Z 12003KT 10SM SCT150 BKN180 13/06 A3005 RMK AO2A SLPNO WND DATA ESTMD ALSTG ESTMD $
 
KP08 - Coolidge Muni, Arizona, USA
Distance from station: SSE 77mi, 124km
Updated: 12/11/2018 11:35am
Clear
Clear
 Wind from calm
Wind: Calm
Temperature: 66°F , 19°C
Dew Point: 37°F , 3°C
Humidity: 35%
Barometer: 30.06 inHg , 1017.9 hPa
Clouds: Clear
Visibility: 10 miles , 16 km
2018/12/11 18:35 KP08 111835Z AUTO 00000KT 10SM CLR 19/03 A3006 RMK AO2
KFLG - Flagstaff, Arizona, USA
Distance from station: NNE 91mi, 146km
Updated: 12/11/2018 10:57am
Clear
Clear
 Wind from SW
Wind: SW 5 mph , 7 km/h
Temperature: 48°F , 9°C
Wind Chill: 46°F , 8°C
Dew Point: 19°F , -7°C
Humidity: 32%
Barometer: 30.22 inHg , 1023.4 hPa
Clouds: Clear
Visibility: 10 miles , 16 km
2018/12/11 17:57 KFLG 111757Z 23004KT 10SM CLR 09/M07 A3022 RMK AO2 SLP203 T00891067 10094 21033 52004
 
KCMR - Williams Clark, Arizona, USA
Distance from station: N 98mi, 158km
Updated: 12/11/2018 11:35am
Clear
Clear
 Wind from SSW
Wind: SSW 5 mph , 7 km/h
Temperature: 54°F , 12°C
Dew Point: 10°F , -12°C
Humidity: 18%
Barometer: 30.17 inHg , 1021.7 hPa
Clouds: Clear
Visibility: 10 miles , 16 km
2018/12/11 18:35 KCMR 111835Z AUTO 20004KT 10SM CLR 12/M12 A3017 RMK AO2